Overview Statistics Trail Chart Weather Telemetry Raw packets
 

This is the latest recevied weather packets stored in our database for station/object SV9TNF-52. If no packets are shown the sender has not sent any weather packets the latest 10 day(s).

<< 21 22 23 24 25 26 27 >>
Time Temp. Humidity Pressure Rain* Wind** Luminosity Snow
1788510577 30.56° C 55% 1020 hPa 0 mm 8.49 m/s, 19° - -
1788510277 30.56° C 57% 1020 hPa 0 mm 4.92 m/s, 340° - -
1788509978 30.56° C 58% 1020 hPa 0 mm 4.47 m/s, 245° - -
1788509677 30° C 59% 1020 hPa 0 mm 1.79 m/s, 285° - -
1788509377 29.44° C 58% 1020 hPa 0 mm 6.71 m/s, 27° - -
1788509077 29.44° C 56% 1020 hPa 0 mm 4.02 m/s, 54° - -
1788508777 30° C 58% 1020 hPa 0 mm 7.15 m/s, 19° - -
1788508494 30.56° C 57% 1020 hPa 0 mm 2.68 m/s, 287° - -
1788508177 29.44° C 56% 1020 hPa 0 mm 4.47 m/s, 293° - -
1788507877 30° C 57% 1020 hPa 0 mm 4.02 m/s, 321° - -
1788507577 29.44° C 59% 1020 hPa 0 mm 4.02 m/s, 354° - -
1788507277 28.89° C 59% 1020 hPa 0 mm 6.71 m/s, 308° - -
1788506976 28.33° C 59% 1020 hPa 0 mm 15.2 m/s, 16° - -
1788506676 28.89° C 59% 1020 hPa 0 mm 3.13 m/s, 351° - -
1788506377 28.89° C 60% 1020 hPa 0 mm 7.15 m/s, 17° - -
1788506076 29.44° C 59% 1020 hPa 0 mm 5.81 m/s, 58° - -
1788505776 29.44° C 59% 1019.6 hPa 0 mm 5.81 m/s, 260° - -
1788505476 28.89° C 59% 1019.6 hPa 0 mm 7.15 m/s, 3° - -
1788505176 29.44° C 59% 1019.6 hPa 0 mm 5.81 m/s, 353° - -
1788504876 29.44° C 60% 1019.6 hPa 0 mm 3.58 m/s, 265° - -
1788504575 28.89° C 61% 1019.6 hPa 0 mm 8.94 m/s, 262° - -
1788504276 29.44° C 59% 1019.3 hPa 0 mm 2.68 m/s, 23° - -
1788503975 29.44° C 61% 1019.3 hPa 0 mm 4.92 m/s, 245° - -
1788503675 29.44° C 61% 1019.3 hPa 0 mm 4.92 m/s, 16° - -
1788503375 28.89° C 61% 1019.3 hPa 0 mm 4.92 m/s, 40° - -

* Rain latest hour (hover to see other rain measurements)
** Current wind speed in m/s (hover to see current wind gust speed)